createdAt,value
2023-02-19T14:22:55.448Z,147600.78
2023-02-19T14:23:58.995Z,147588.66
2023-02-19T14:25:02.952Z,147611.66
2023-02-19T14:26:07.633Z,147624.97
2023-02-19T14:27:14.032Z,147603.22
2023-02-19T14:28:27.674Z,147632.25
2023-02-19T14:29:30.310Z,147654.00
2023-02-19T14:30:40.035Z,147664.94
2023-02-19T14:31:46.332Z,147668.56
2023-02-19T14:32:54.616Z,147639.50
2023-02-19T14:34:05.116Z,147620.13
2023-02-19T14:35:31.009Z,147608.03
2023-02-19T14:36:50.360Z,147605.63
2023-02-19T14:37:55.875Z,147600.78
2023-02-19T14:39:02.595Z,147612.88
2023-02-19T14:40:06.103Z,147610.47
2023-02-19T14:41:13.317Z,147606.84
2023-02-19T14:42:27.684Z,147588.66
2023-02-19T14:43:33.441Z,147614.09
2023-02-19T14:44:44.479Z,147586.25
2023-02-19T14:46:17.741Z,147554.78
2023-02-19T14:47:24.199Z,147583.81
2023-02-19T14:48:42.211Z,147612.88
2023-02-19T14:49:52.895Z,147560.81
2023-02-19T14:51:03.086Z,147610.47
2023-02-19T14:52:10.767Z,147602.00
2023-02-19T14:53:16.533Z,147691.53
2023-02-19T14:54:31.047Z,147719.38
2023-02-19T14:55:40.423Z,147736.34
2023-02-19T14:56:47.608Z,147743.59
2023-02-19T14:57:53.969Z,147691.53
2023-02-19T14:59:19.769Z,147637.09
2023-02-19T15:00:22.427Z,147617.72
2023-02-19T15:01:28.812Z,147632.25
2023-02-19T15:02:32.626Z,147617.72
2023-02-19T15:03:37.418Z,147656.44
2023-02-19T15:04:40.345Z,147700.03
2023-02-19T15:05:45.346Z,147709.72
2023-02-19T15:06:47.988Z,147739.97
2023-02-19T15:07:52.097Z,147732.72
2023-02-19T15:08:59.864Z,147761.75
2023-02-19T15:10:16.586Z,147753.28
2023-02-19T15:11:48.107Z,147830.81
2023-02-19T15:13:01.440Z,147809.00
2023-02-19T15:14:07.941Z,147807.78
2023-02-19T15:15:19.073Z,147719.38
2023-02-19T15:16:25.776Z,147726.63
2023-02-19T15:17:31.561Z,147809.00
2023-02-19T15:18:36.615Z,147750.88
2023-02-19T15:19:40.321Z,147724.22
2023-02-19T15:20:43.321Z,147714.53
2023-02-19T15:21:50.050Z,147673.41
2023-02-19T15:22:54.131Z,147593.50
2023-02-19T15:24:00.929Z,147562.03
2023-02-19T15:25:05.667Z,147524.47
2023-02-19T15:26:22.599Z,147503.94
2023-02-19T15:27:25.696Z,147431.31
2023-02-19T15:28:34.706Z,147368.41
2023-02-19T15:29:46.703Z,147375.72
2023-02-19T15:30:50.670Z,147351.50
2023-02-19T15:32:01.541Z,147339.44
2023-02-19T15:33:04.469Z,147320.06
2023-02-19T15:34:17.222Z,147298.28
2023-02-19T15:35:23.190Z,147264.44
2023-02-19T15:36:34.599Z,147257.19
2023-02-19T15:37:38.195Z,147248.75
2023-02-19T15:38:41.483Z,147217.31
2023-02-19T15:39:47.798Z,147220.94
2023-02-19T15:40:51.163Z,147234.22
2023-02-19T15:41:59.997Z,147252.38
2023-02-19T15:43:03.289Z,147231.78
2023-02-19T15:44:24.650Z,147233.00
2023-02-19T15:45:42.056Z,147243.91
2023-02-19T15:46:46.906Z,147201.56
2023-02-19T15:48:00.294Z,147194.31
2023-02-19T15:49:31.496Z,147203.97
2023-02-19T15:50:39.785Z,147203.97
2023-02-19T15:51:52.636Z,147194.31
2023-02-19T15:53:25.035Z,147181.03
2023-02-19T15:54:34.753Z,147170.13
2023-02-19T15:55:44.474Z,147160.47
2023-02-19T15:56:50.969Z,147132.69
2023-02-19T15:58:09.206Z,147146.00
2023-02-19T15:59:48.440Z,147156.88
2023-02-19T16:01:03.097Z,147153.25
2023-02-19T16:02:10.157Z,147141.13
2023-02-19T16:03:24.091Z,147139.91
2023-02-19T16:04:27.802Z,147121.81
2023-02-19T16:05:31.767Z,147124.22
2023-02-19T16:06:54.817Z,147142.34
2023-02-19T16:08:17.852Z,147103.63
2023-02-19T16:09:23.008Z,147102.41
2023-02-19T16:10:26.146Z,147092.75
2023-02-19T16:11:28.780Z,147079.50
2023-02-19T16:12:32.261Z,147067.38
2023-02-19T16:13:35.735Z,147066.16
2023-02-19T16:14:38.402Z,147044.41
2023-02-19T16:15:41.264Z,147051.69
2023-02-19T16:16:45.464Z,147046.88
2023-02-19T16:17:48.229Z,147046.88
2023-02-19T16:18:52.442Z,147038.38
2023-02-19T16:20:00.801Z,147026.31
2023-02-19T16:21:08.322Z,147020.28
2023-02-19T16:22:12.992Z,146997.31
2023-02-19T16:23:20.791Z,146999.72
2023-02-19T16:24:31.235Z,146991.28
2023-02-19T16:25:44.995Z,146976.75
2023-02-19T16:26:47.570Z,146971.94
2023-02-19T16:27:50.438Z,146971.94
2023-02-19T16:28:54.398Z,146957.44
2023-02-19T16:29:57.852Z,146946.56
2023-02-19T16:31:03.568Z,146923.63
2023-02-19T16:32:15.130Z,146918.81
2023-02-19T16:33:41.940Z,146927.25
2023-02-19T16:34:49.475Z,146918.81
2023-02-19T16:35:52.706Z,146906.72
2023-02-19T16:36:55.480Z,146913.94
2023-02-19T16:38:00.156Z,146900.69
2023-02-19T16:39:08.465Z,146909.13
2023-02-19T16:40:16.594Z,146892.22
2023-02-19T16:41:19.619Z,146885.00
2023-02-19T16:42:22.908Z,146872.88
2023-02-19T16:43:39.412Z,146875.31
2023-02-19T16:44:42.416Z,146856.00
2023-02-19T16:45:45.943Z,146859.63
2023-02-19T16:46:53.823Z,146858.41
2023-02-19T16:47:56.570Z,146834.25
2023-02-19T16:48:59.325Z,146828.22
2023-02-19T16:50:03.911Z,146812.50
2023-02-19T16:51:08.209Z,146822.19
2023-02-19T16:52:15.648Z,146814.91
2023-02-19T16:53:21.049Z,146788.41
2023-02-19T16:54:23.571Z,146769.06
2023-02-19T16:55:27.178Z,146764.25
2023-02-19T16:56:30.660Z,146754.59
2023-02-19T16:57:33.292Z,146760.63
2023-02-19T16:58:38.235Z,146755.81
2023-02-19T16:59:42.411Z,146752.13
2023-02-19T17:00:45.118Z,146759.41
2023-02-19T17:01:47.817Z,146752.13
2023-02-19T17:03:03.805Z,146741.28
2023-02-19T17:04:10.524Z,146728.03
2023-02-19T17:05:13.279Z,146706.28
2023-02-19T17:06:16.393Z,146706.28
2023-02-19T17:07:19.265Z,146712.31
2023-02-19T17:08:41.244Z,146719.53
2023-02-19T17:09:43.991Z,146686.97
2023-02-19T17:10:46.509Z,146690.63
2023-02-19T17:11:49.393Z,146699.06
2023-02-19T17:12:53.593Z,146686.97
2023-02-19T17:13:56.233Z,146673.69
2023-02-19T17:14:58.879Z,146661.66
2023-02-19T17:16:02.338Z,146665.25
2023-02-19T17:17:05.718Z,146672.50
2023-02-19T17:18:11.608Z,146662.84
2023-02-19T17:19:18.335Z,146653.16
2023-02-19T17:20:29.610Z,146688.22
2023-02-19T17:21:33.582Z,146667.69
2023-02-19T17:22:36.689Z,146664.06
2023-02-19T17:23:39.692Z,146665.25
2023-02-19T17:24:43.171Z,146665.25
2023-02-19T17:25:46.292Z,146668.88
2023-02-19T17:26:49.413Z,146662.84
2023-02-19T17:27:52.536Z,146662.84
2023-02-19T17:29:04.670Z,146678.53
2023-02-19T17:30:22.345Z,146682.13
2023-02-19T17:31:25.753Z,146676.09
2023-02-19T17:32:29.028Z,146676.09
2023-02-19T17:33:32.149Z,146678.53
2023-02-19T17:34:35.268Z,146677.31
2023-02-19T17:35:38.395Z,146677.31
2023-02-19T17:36:45.109Z,146671.28
2023-02-19T17:37:48.234Z,146661.66
2023-02-19T17:38:51.358Z,146672.50
2023-02-19T17:39:54.595Z,146676.09
2023-02-19T17:40:57.836Z,146653.16
2023-02-19T17:42:01.095Z,146660.44
2023-02-19T17:43:04.804Z,146641.13
2023-02-19T17:44:08.039Z,146643.53
2023-02-19T17:45:11.192Z,146638.72
2023-02-19T17:46:21.602Z,146635.09
2023-02-19T17:47:24.977Z,146631.47
2023-02-19T17:48:28.446Z,146637.50
2023-02-19T17:49:31.567Z,146621.78
2023-02-19T17:50:34.935Z,146619.38
2023-02-19T17:51:38.294Z,146614.56
2023-02-19T17:52:41.893Z,146615.75
2023-02-19T17:53:46.948Z,146621.78
2023-02-19T17:54:50.176Z,146614.56
2023-02-19T17:55:53.545Z,146612.16
2023-02-19T17:56:56.782Z,146607.34
2023-02-19T17:58:01.104Z,146619.38
2023-02-19T17:59:04.465Z,146612.16
2023-02-19T18:00:08.553Z,146616.97
2023-02-19T18:01:15.930Z,146607.34
2023-02-19T18:02:18.870Z,146603.72
2023-02-19T18:03:21.875Z,146596.50
2023-02-19T18:04:24.753Z,146597.69
2023-02-19T18:05:27.757Z,146602.50
2023-02-19T18:06:30.640Z,146595.28
2023-02-19T18:07:33.288Z,146592.88
2023-02-19T18:08:36.215Z,146579.56
2023-02-19T18:09:41.203Z,146585.59
2023-02-19T18:10:43.777Z,146585.59
2023-02-19T18:11:46.726Z,146585.59
2023-02-19T18:12:49.668Z,146573.53
2023-02-19T18:13:52.736Z,146592.88
2023-02-19T18:14:56.737Z,146601.31
2023-02-19T18:15:59.335Z,146604.91
2023-02-19T18:17:02.426Z,146601.31
2023-02-19T18:18:05.340Z,146619.38
2023-02-19T18:19:07.980Z,146604.91
2023-02-19T18:20:16.180Z,146613.34
2023-02-19T18:21:18.951Z,146624.25
2023-02-19T18:22:21.584Z,146626.66
2023-02-19T18:23:24.349Z,146626.66
2023-02-19T18:24:26.988Z,146616.97
2023-02-19T18:25:29.472Z,146629.06
2023-02-19T18:26:33.477Z,146626.66
2023-02-19T18:27:36.316Z,146608.53
2023-02-19T18:28:39.468Z,146606.13
2023-02-19T18:29:42.199Z,146609.75
2023-02-19T18:30:45.190Z,146606.13
2023-02-19T18:31:48.066Z,146607.34
2023-02-19T18:32:51.333Z,146597.69
2023-02-19T18:33:53.873Z,146600.09
2023-02-19T18:34:58.441Z,146590.47
2023-02-19T18:36:01.200Z,146583.19
2023-02-19T18:37:04.063Z,146575.97
2023-02-19T18:38:06.713Z,146585.59
2023-02-19T18:39:09.477Z,146577.16
2023-02-19T18:40:12.597Z,146601.31
2023-02-19T18:41:20.235Z,146603.72
2023-02-19T18:42:23.276Z,146600.09
2023-02-19T18:43:26.060Z,146591.66
2023-02-19T18:44:29.039Z,146602.50
2023-02-19T18:45:35.533Z,146595.28
2023-02-19T18:46:38.283Z,146619.38
2023-02-19T18:47:40.927Z,146626.66
2023-02-19T18:48:43.680Z,146630.28
2023-02-19T18:49:53.525Z,146604.91
2023-02-19T18:50:56.164Z,146613.34
2023-02-19T18:52:01.331Z,146627.88
2023-02-19T18:53:03.842Z,146627.88
2023-02-19T18:54:07.933Z,146619.38
2023-02-19T18:55:11.785Z,146619.38
2023-02-19T18:56:14.545Z,146606.13
2023-02-19T18:57:17.548Z,146614.56
2023-02-19T18:58:20.526Z,146626.66
2023-02-19T18:59:23.289Z,146621.78
2023-02-19T19:00:26.825Z,146627.88
2023-02-19T19:01:29.379Z,146620.59
2023-02-19T19:02:47.172Z,146598.91
2023-02-19T19:03:51.133Z,146603.72
2023-02-19T19:04:54.499Z,146604.91
2023-02-19T19:05:57.147Z,146608.53
2023-02-19T19:06:59.780Z,146595.28
2023-02-19T19:08:02.304Z,146575.97
2023-02-19T19:09:05.672Z,146588.00
2023-02-19T19:10:10.466Z,146585.59
2023-02-19T19:11:13.229Z,146573.53
2023-02-19T19:12:16.478Z,146592.88
2023-02-19T19:13:19.122Z,146578.38
2023-02-19T19:14:21.752Z,146584.41
2023-02-19T19:15:25.022Z,146567.53
2023-02-19T19:16:29.216Z,146578.38
2023-02-19T19:17:31.718Z,146571.13
2023-02-19T19:18:38.198Z,146566.31
2023-02-19T19:19:44.442Z,146585.59
2023-02-19T19:20:47.389Z,146556.63
2023-02-19T19:21:56.462Z,146561.50
2023-02-19T19:22:59.453Z,146565.13
2023-02-19T19:24:02.573Z,146573.53
2023-02-19T19:25:05.711Z,146566.31
2023-02-19T19:26:09.614Z,146566.31
2023-02-19T19:27:12.906Z,146556.63
2023-02-19T19:28:16.257Z,146543.38
2023-02-19T19:29:22.379Z,146554.22
2023-02-19T19:30:25.787Z,146551.81
2023-02-19T19:31:35.850Z,146571.13
2023-02-19T19:32:39.187Z,146557.88
2023-02-19T19:33:43.385Z,146550.63
2023-02-19T19:34:46.632Z,146561.50
2023-02-19T19:35:49.749Z,146561.50
2023-02-19T19:36:52.878Z,146571.13
2023-02-19T19:37:55.995Z,146554.22
2023-02-19T19:38:59.235Z,146571.13
2023-02-19T19:40:04.276Z,146573.53
2023-02-19T19:41:07.642Z,146566.31
2023-02-19T19:42:11.242Z,146554.22
2023-02-19T19:43:14.361Z,146565.13
2023-02-19T19:44:17.601Z,146557.88
2023-02-19T19:45:21.018Z,146565.13
2023-02-19T19:46:24.411Z,146586.81
2023-02-19T19:47:27.805Z,146557.88
2023-02-19T19:48:30.932Z,146577.16
2023-02-19T19:49:33.929Z,146561.50
2023-02-19T19:50:37.296Z,146553.03
2023-02-19T19:51:40.533Z,146550.63
2023-02-19T19:52:43.894Z,146539.78
2023-02-19T19:53:50.970Z,146549.41
2023-02-19T19:54:54.702Z,146551.81
2023-02-19T19:55:57.820Z,146563.91
2023-02-19T19:57:01.186Z,146557.88
2023-02-19T19:58:04.785Z,146542.19
2023-02-19T19:59:09.585Z,146559.09
2023-02-19T20:00:16.548Z,146557.88
2023-02-19T20:01:21.474Z,146572.34
2023-02-19T20:02:24.607Z,146569.94
2023-02-19T20:03:28.192Z,146561.50
2023-02-19T20:04:31.196Z,146559.09
2023-02-19T20:05:34.087Z,146559.09
2023-02-19T20:06:36.961Z,146568.72
2023-02-19T20:07:40.567Z,146560.28
2023-02-19T20:08:43.200Z,146551.81
2023-02-19T20:09:49.621Z,146557.88
2023-02-19T20:10:52.446Z,146524.03
2023-02-19T20:11:55.446Z,146547.00
2023-02-19T20:12:58.205Z,146539.78
2023-02-19T20:14:00.848Z,146526.50
2023-02-19T20:15:03.488Z,146518.00
2023-02-19T20:16:06.295Z,146520.41
2023-02-19T20:17:09.737Z,146518.00
2023-02-19T20:18:13.103Z,146513.16
2023-02-19T20:19:17.578Z,146520.41
2023-02-19T20:20:21.670Z,146519.19
2023-02-19T20:21:24.307Z,146524.03
2023-02-19T20:22:26.830Z,146505.94
2023-02-19T20:23:30.187Z,146502.34
2023-02-19T20:24:32.825Z,146490.25
2023-02-19T20:25:35.470Z,146510.75
2023-02-19T20:26:37.997Z,146510.75
2023-02-19T20:27:40.507Z,146518.00
2023-02-19T20:28:46.523Z,146499.94
2023-02-19T20:29:49.486Z,146492.69
2023-02-19T20:30:52.272Z,146491.44
2023-02-19T20:31:56.532Z,146501.13
2023-02-19T20:32:59.111Z,146486.63
2023-02-19T20:34:01.630Z,146505.94
2023-02-19T20:35:04.481Z,146498.72
2023-02-19T20:36:07.965Z,146486.63
2023-02-19T20:37:10.996Z,146484.22
2023-02-19T20:38:16.990Z,146489.03
2023-02-19T20:39:21.192Z,146475.78
2023-02-19T20:40:27.480Z,146464.94
2023-02-19T20:41:29.962Z,146481.81
2023-02-19T20:42:32.715Z,146477.00
2023-02-19T20:43:35.352Z,146489.03
2023-02-19T20:44:37.885Z,146477.00
2023-02-19T20:45:41.236Z,146475.78
2023-02-19T20:46:49.460Z,146470.97
2023-02-19T20:47:52.640Z,146456.47
2023-02-19T20:48:55.401Z,146452.84
2023-02-19T20:49:58.044Z,146439.63
2023-02-19T20:51:00.677Z,146444.44
2023-02-19T20:52:06.924Z,146452.84
2023-02-19T20:53:10.299Z,146438.41
2023-02-19T20:54:13.307Z,146438.41
2023-02-19T20:55:15.937Z,146425.13
2023-02-19T20:56:18.447Z,146436.00
2023-02-19T20:57:21.081Z,146429.97
2023-02-19T20:58:24.942Z,146431.19
2023-02-19T20:59:31.285Z,146445.63
2023-02-19T21:00:33.812Z,146432.38
2023-02-19T21:01:36.394Z,146434.78
2023-02-19T21:02:39.027Z,146433.59
2023-02-19T21:03:41.633Z,146456.47
2023-02-19T21:04:44.257Z,146457.69
2023-02-19T21:05:46.892Z,146445.63
2023-02-19T21:06:52.300Z,146457.69
2023-02-19T21:07:54.819Z,146448.03
2023-02-19T21:08:57.338Z,146452.84
2023-02-19T21:09:59.975Z,146464.94
2023-02-19T21:11:02.505Z,146472.19
2023-02-19T21:12:05.386Z,146484.22
2023-02-19T21:13:07.902Z,146501.13
2023-02-19T21:14:10.785Z,146503.53
2023-02-19T21:15:14.873Z,146515.59
2023-02-19T21:16:17.887Z,146510.75
2023-02-19T21:17:20.523Z,146498.72
2023-02-19T21:18:23.271Z,146493.91
2023-02-19T21:19:25.803Z,146491.44
2023-02-19T21:20:28.917Z,146486.63
2023-02-19T21:21:32.064Z,146489.03
2023-02-19T21:22:35.164Z,146486.63
2023-02-19T21:23:38.042Z,146489.03
2023-02-19T21:24:40.697Z,146491.44
2023-02-19T21:25:43.806Z,146502.34
2023-02-19T21:26:46.928Z,146503.53
2023-02-19T21:27:50.047Z,146495.09
2023-02-19T21:28:53.410Z,146507.16
2023-02-19T21:29:56.534Z,146513.16
2023-02-19T21:30:59.687Z,146515.59
2023-02-19T21:32:02.888Z,146525.28
2023-02-19T21:33:06.045Z,146530.13
2023-02-19T21:34:12.017Z,146527.72
2023-02-19T21:35:15.142Z,146542.19
2023-02-19T21:36:19.344Z,146501.13
2023-02-19T21:37:22.591Z,146496.31
2023-02-19T21:38:25.706Z,146501.13
2023-02-19T21:39:28.951Z,146511.97
2023-02-19T21:40:33.270Z,146510.75
2023-02-19T21:41:36.634Z,146505.94
2023-02-19T21:42:39.753Z,146501.13
2023-02-19T21:43:42.874Z,146525.28
2023-02-19T21:44:46.002Z,146520.41
2023-02-19T21:45:49.274Z,146522.81
2023-02-19T21:46:52.370Z,146505.94
2023-02-19T21:47:55.609Z,146503.53
2023-02-19T21:48:58.722Z,146513.16
2023-02-19T21:50:01.844Z,146513.16
2023-02-19T21:51:05.205Z,146509.56
2023-02-19T21:52:08.819Z,146519.19
2023-02-19T21:53:13.129Z,146525.28
2023-02-19T21:54:19.145Z,146527.72
2023-02-19T21:55:22.253Z,146518.00
2023-02-19T21:56:28.136Z,146530.13
2023-02-19T21:57:33.057Z,146539.78
2023-02-19T21:58:36.420Z,146532.53
2023-02-19T21:59:39.909Z,146537.38
2023-02-19T22:00:43.515Z,146542.19
2023-02-19T22:01:46.983Z,146539.78
2023-02-19T22:02:50.249Z,146530.13
2023-02-19T22:03:53.223Z,146532.53
2023-02-19T22:04:56.345Z,146524.03
2023-02-19T22:06:01.988Z,146544.59
2023-02-19T22:07:04.875Z,146538.56
2023-02-19T22:08:07.874Z,146536.16
2023-02-19T22:09:12.077Z,146544.59
2023-02-19T22:10:16.874Z,146544.59
2023-02-19T22:11:19.759Z,146549.41
2023-02-19T22:12:22.337Z,146559.09
2023-02-19T22:13:25.044Z,146544.59
2023-02-19T22:14:27.610Z,146545.78
2023-02-19T22:15:30.133Z,146544.59
2023-02-19T22:16:32.704Z,146539.78
2023-02-19T22:17:35.292Z,146534.94
2023-02-19T22:18:37.938Z,146534.94
2023-02-19T22:19:40.768Z,146533.75
2023-02-19T22:20:43.340Z,146537.38
2023-02-19T22:21:45.862Z,146534.94
2023-02-19T22:22:48.734Z,146525.28
2023-02-19T22:23:53.374Z,146534.94
2023-02-19T22:24:55.935Z,146568.72
2023-02-19T22:25:58.777Z,146569.94
2023-02-19T22:27:01.419Z,146566.31
2023-02-19T22:28:05.178Z,146549.41
2023-02-19T22:29:08.422Z,146544.59
2023-02-19T22:30:11.336Z,146544.59
2023-02-19T22:31:16.700Z,146542.19
2023-02-19T22:32:19.420Z,146533.75
2023-02-19T22:33:22.349Z,146538.56
2023-02-19T22:34:25.076Z,146556.63
2023-02-19T22:35:27.742Z,146550.63
2023-02-19T22:36:32.157Z,146554.22
2023-02-19T22:37:34.708Z,146574.75
2023-02-19T22:38:37.346Z,146585.59
2023-02-19T22:39:39.887Z,146595.28
2023-02-19T22:40:42.532Z,146596.50
2023-02-19T22:41:45.530Z,146590.47
2023-02-19T22:42:48.155Z,146592.88
2023-02-19T22:43:51.268Z,146596.50
2023-02-19T22:44:53.788Z,146571.13
2023-02-19T22:45:56.353Z,146575.97
2023-02-19T22:46:58.954Z,146563.91
2023-02-19T22:48:01.472Z,146556.63
2023-02-19T22:49:06.164Z,146583.19
2023-02-19T22:50:09.156Z,146569.94
2023-02-19T22:51:13.716Z,146575.97
2023-02-19T22:52:16.280Z,146563.91
2023-02-19T22:53:18.878Z,146571.13
2023-02-19T22:54:25.233Z,146565.13
2023-02-19T22:55:27.754Z,146549.41
2023-02-19T22:56:30.406Z,146550.63
2023-02-19T22:57:32.920Z,146557.88
2023-02-19T22:58:35.439Z,146553.03
2023-02-19T22:59:37.982Z,146559.09
2023-02-19T23:00:40.380Z,146556.63
2023-02-19T23:01:43.138Z,146550.63
2023-02-19T23:02:48.303Z,146549.41
2023-02-19T23:03:56.017Z,146559.09
2023-02-19T23:04:58.606Z,146554.22
2023-02-19T23:06:04.980Z,146547.00
2023-02-19T23:07:07.729Z,146556.63
2023-02-19T23:08:10.260Z,146549.41
2023-02-19T23:09:24.905Z,146555.44
2023-02-19T23:10:28.498Z,146549.41
2023-02-19T23:11:34.138Z,146543.38
2023-02-19T23:12:38.341Z,146545.78
2023-02-19T23:13:42.680Z,146544.59
2023-02-19T23:14:46.864Z,146542.19
2023-02-19T23:15:49.524Z,146567.53
2023-02-19T23:16:52.225Z,146550.63
2023-02-19T23:17:54.790Z,146556.63
2023-02-19T23:18:57.439Z,146554.22
2023-02-19T23:20:01.529Z,146580.78
2023-02-19T23:21:04.159Z,146580.78
2023-02-19T23:22:06.914Z,146566.31
2023-02-19T23:23:09.561Z,146575.97
2023-02-19T23:24:13.040Z,146580.78
2023-02-19T23:25:15.802Z,146572.34
2023-02-19T23:26:19.061Z,146555.44
2023-02-19T23:27:24.372Z,146559.09
2023-02-19T23:28:27.329Z,146560.28
2023-02-19T23:29:31.068Z,146563.91
2023-02-19T23:30:34.227Z,146566.31
2023-02-19T23:31:37.489Z,146592.88
2023-02-19T23:32:40.662Z,146580.78
2023-02-19T23:33:43.897Z,146575.97
2023-02-19T23:34:48.591Z,146574.75
2023-02-19T23:35:51.705Z,146566.31
2023-02-19T23:36:54.941Z,146567.53
2023-02-19T23:37:58.182Z,146559.09
2023-02-19T23:39:01.302Z,146575.97
2023-02-19T23:40:05.024Z,146567.53
2023-02-19T23:41:12.464Z,146592.88
2023-02-19T23:42:17.391Z,146569.94
2023-02-19T23:43:21.471Z,146566.31
2023-02-19T23:44:26.150Z,146583.19
2023-02-19T23:45:30.250Z,146568.72
2023-02-19T23:46:34.315Z,146574.75
2023-02-19T23:47:37.432Z,146560.28
2023-02-19T23:48:40.554Z,146566.31
2023-02-19T23:49:43.676Z,146566.31
2023-02-19T23:50:47.043Z,146578.38
2023-02-19T23:51:50.159Z,146571.13
2023-02-19T23:52:53.285Z,146578.38
2023-02-19T23:53:56.419Z,146575.97
2023-02-19T23:54:59.527Z,146571.13
2023-02-19T23:56:03.009Z,146571.13
2023-02-19T23:57:06.372Z,146590.47
2023-02-19T23:58:09.615Z,146588.00
2023-02-19T23:59:13.098Z,146580.78
